Time;durP1;ratioP1;P1;durP2;ratioP2;P2;SDS_P1;SDS_P2;PMS_P1;PMS_P2;Temp;Humidity;BMP_temperature;BMP_pressure;BME280_temperature;BME280_humidity;BME280_pressure;Samples;Min_cycle;Max_cycle;Signal;HPM_P1;HPM_P2
2022/06/16 00:02:40;;;;;;;6.25;3.13;;;;;;;;;;10317640;28;20498;-61
2022/06/16 00:07:39;;;;;;;4.40;3.03;;;;;;;;;;10317781;28;20066;-62
2022/06/16 00:12:38;;;;;;;4.05;3.17;;;;;;;;;;10317680;28;20056;-62
2022/06/16 00:17:36;;;;;;;4.85;3.30;;;;;;;;;;10316940;28;20048;-62
2022/06/16 00:22:37;;;;;;;8.45;3.97;;;;;;;;;;10316968;28;20490;-62
2022/06/16 00:27:35;;;;;;;3.92;3.35;;;;;;;;;;10317179;28;20037;-62
2022/06/16 00:32:33;;;;;;;3.42;3.13;;;;;;;;;;10317126;28;20532;-61
2022/06/16 00:37:32;;;;;;;3.83;2.88;;;;;;;;;;10317024;28;20060;-62
2022/06/16 00:42:32;;;;;;;5.07;3.33;;;;;;;;;;10317127;28;20052;-62
2022/06/16 00:47:31;;;;;;;5.10;3.63;;;;;;;;;;10316820;28;20056;-62
2022/06/16 00:52:31;;;;;;;5.60;3.45;;;;;;;;;;10315268;28;20057;-62
2022/06/16 00:57:33;;;;;;;4.03;3.08;;;;;;;;;;10316652;28;20045;-62
2022/06/16 01:02:32;;;;;;;3.22;2.70;;;;;;;;;;10315663;28;20080;-62
2022/06/16 01:07:32;;;;;;;4.32;3.05;;;;;;;;;;10314775;28;20533;-62
2022/06/16 01:18:03;;;;;;;5.72;3.00;;;;;;;;;;10316259;28;20048;-61
2022/06/16 01:23:20;;;;;;;8.63;3.15;;;;;;;;;;10323444;28;20057;-61
2022/06/16 01:28:24;;;;;;;5.03;3.00;;;;;;;;;;10322516;28;20045;-62
2022/06/16 01:33:25;;;;;;;4.53;3.03;;;;;;;;;;10322041;28;20048;-62
2022/06/16 01:38:26;;;;;;;4.93;3.15;;;;;;;;;;10321410;28;20048;-62
2022/06/16 01:43:28;;;;;;;4.88;3.13;;;;;;;;;;10323476;28;20040;-62
2022/06/16 01:48:28;;;;;;;5.43;3.00;;;;;;;;;;10323377;28;20067;-63
2022/06/16 01:53:30;;;;;;;5.03;3.00;;;;;;;;;;10322190;28;20053;-62
2022/06/16 01:58:32;;;;;;;7.70;3.97;;;;;;;;;;10317753;28;20067;-62
2022/06/16 02:03:33;;;;;;;4.50;3.08;;;;;;;;;;10288169;28;20103;-62
2022/06/16 02:08:34;;;;;;;4.40;2.83;;;;;;;;;;10280443;28;20059;-62
2022/06/16 02:13:35;;;;;;;4.38;3.05;;;;;;;;;;10280094;28;20049;-63
2022/06/16 02:18:37;;;;;;;5.35;2.80;;;;;;;;;;10281479;28;20040;-62
2022/06/16 02:23:35;;;;;;;3.65;3.10;;;;;;;;;;10279816;28;20075;-62
2022/06/16 02:28:42;;;;;;;5.97;3.22;;;;;;;;;;10279557;28;20053;-62
2022/06/16 02:33:49;;;;;;;7.90;3.90;;;;;;;;;;10278391;28;20060;-62
2022/06/16 02:38:51;;;;;;;3.88;3.00;;;;;;;;;;10281134;28;20147;-62
2022/06/16 02:44:01;;;;;;;5.28;2.92;;;;;;;;;;10280647;28;20135;-61
2022/06/16 02:49:04;;;;;;;4.90;3.67;;;;;;;;;;10295565;28;20045;-62
2022/06/16 02:54:09;;;;;;;5.50;3.05;;;;;;;;;;10295234;28;20053;-62
2022/06/16 02:59:09;;;;;;;7.25;3.45;;;;;;;;;;10278467;28;20051;-62
2022/06/16 03:04:11;;;;;;;5.05;2.95;;;;;;;;;;10278622;28;20053;-62
2022/06/16 03:09:13;;;;;;;6.22;4.35;;;;;;;;;;10278170;28;20121;-62
2022/06/16 03:14:12;;;;;;;9.45;7.25;;;;;;;;;;10277206;28;20053;-62
2022/06/16 03:19:17;;;;;;;7.50;3.22;;;;;;;;;;10277204;28;20080;-62
2022/06/16 03:24:16;;;;;;;4.70;3.22;;;;;;;;;;10276948;28;20068;-62
2022/06/16 03:29:17;;;;;;;5.45;2.80;;;;;;;;;;10294197;28;20056;-62
2022/06/16 03:34:19;;;;;;;9.40;3.78;;;;;;;;;;10276553;28;20502;-63
2022/06/16 03:39:18;;;;;;;6.18;3.30;;;;;;;;;;10276302;28;20096;-62
2022/06/16 03:44:21;;;;;;;4.07;3.67;;;;;;;;;;10292977;28;20049;-63
2022/06/16 03:49:21;;;;;;;4.75;3.88;;;;;;;;;;10276413;28;20063;-63
2022/06/16 03:54:22;;;;;;;5.35;3.33;;;;;;;;;;10275857;28;20514;-63
2022/06/16 03:59:28;;;;;;;8.95;4.07;;;;;;;;;;10292369;28;20064;-61
2022/06/16 04:04:34;;;;;;;5.95;3.60;;;;;;;;;;10292121;28;20044;-61
2022/06/16 04:09:35;;;;;;;7.25;5.63;;;;;;;;;;10275302;28;20056;-61
2022/06/16 04:14:35;;;;;;;11.60;5.22;;;;;;;;;;10292349;28;20076;-62
2022/06/16 04:20:11;;;;;;;5.88;4.20;;;;;;;;;;10291658;28;20056;-62
2022/06/16 04:24:57;;;;;;;8.68;4.15;;;;;;;;;;10274691;28;20525;-62
2022/06/16 04:29:55;;;;;;;6.25;4.13;;;;;;;;;;10291456;28;20059;-61
2022/06/16 04:34:56;;;;;;;5.40;4.43;;;;;;;;;;10274574;28;20053;-62
2022/06/16 04:40:10;;;;;;;5.78;3.90;;;;;;;;;;10273867;28;20052;-62
2022/06/16 04:45:10;;;;;;;5.35;3.80;;;;;;;;;;10274000;28;20064;-63
2022/06/16 04:50:17;;;;;;;6.90;3.97;;;;;;;;;;10274313;28;20559;-63
2022/06/16 04:55:20;;;;;;;5.82;4.28;;;;;;;;;;10269611;28;20052;-63
2022/06/16 05:00:54;;;;;;;5.50;4.28;;;;;;;;;;10273103;28;20099;-62
2022/06/16 05:06:24;;;;;;;7.47;4.68;;;;;;;;;;10272277;28;20529;-63
2022/06/16 05:11:39;;;;;;;8.38;4.40;;;;;;;;;;10273629;28;20049;-63
2022/06/16 05:16:56;;;;;;;7.55;5.22;;;;;;;;;;10274071;28;20056;-62
2022/06/16 05:22:25;;;;;;;10.73;4.78;;;;;;;;;;10275033;28;20080;-62
2022/06/16 05:27:42;;;;;;;7.50;5.70;;;;;;;;;;10273692;28;20061;-61
2022/06/16 05:33:07;;;;;;;13.23;4.80;;;;;;;;;;10282179;28;20050;-62
2022/06/16 05:38:30;;;;;;;5.07;4.57;;;;;;;;;;10273577;28;20049;-63
2022/06/16 05:43:45;;;;;;;5.57;5.07;;;;;;;;;;10290196;28;20467;-61
2022/06/16 05:49:04;;;;;;;9.15;5.07;;;;;;;;;;10288975;28;20072;-62
2022/06/16 05:54:04;;;;;;;7.47;5.40;;;;;;;;;;10273350;28;20041;-63
2022/06/16 05:59:05;;;;;;;6.00;4.70;;;;;;;;;;10273557;28;20068;-63
2022/06/16 06:04:12;;;;;;;5.35;4.85;;;;;;;;;;10290063;28;20109;-62
2022/06/16 06:19:49;;;;;;;7.13;4.47;;;;;;;;;;10279621;28;20482;-61
2022/06/16 06:24:52;;;;;;;9.55;4.03;;;;;;;;;;10294115;28;20084;-62
2022/06/16 06:30:00;;;;;;;5.97;3.13;;;;;;;;;;10295833;28;20056;-63
2022/06/16 06:34:58;;;;;;;9.13;3.80;;;;;;;;;;10278476;28;20049;-63
2022/06/16 06:39:58;;;;;;;6.85;4.60;;;;;;;;;;10294268;28;20067;-62
2022/06/16 06:44:57;;;;;;;7.47;2.80;;;;;;;;;;10302737;28;20080;-63
2022/06/16 06:49:56;;;;;;;4.53;3.42;;;;;;;;;;10297152;28;20076;-63
2022/06/16 06:54:54;;;;;;;7.35;4.60;;;;;;;;;;10295010;28;20079;-62
2022/06/16 06:59:54;;;;;;;6.93;3.75;;;;;;;;;;10307761;28;20060;-62
2022/06/16 07:04:53;;;;;;;6.80;3.60;;;;;;;;;;10319757;28;20090;-62
2022/06/16 07:09:52;;;;;;;3.75;2.50;;;;;;;;;;10319382;28;20352;-62
2022/06/16 07:14:51;;;;;;;7.30;2.80;;;;;;;;;;10318510;28;20040;-62
2022/06/16 07:19:51;;;;;;;6.88;2.95;;;;;;;;;;10318458;28;20044;-62
2022/06/16 07:24:49;;;;;;;3.65;2.35;;;;;;;;;;10318922;28;20516;-61
2022/06/16 07:29:49;;;;;;;4.88;3.50;;;;;;;;;;10319025;28;20048;-62
2022/06/16 07:34:48;;;;;;;5.78;2.78;;;;;;;;;;10319007;28;20044;-62
2022/06/16 07:39:48;;;;;;;3.05;2.75;;;;;;;;;;10318743;28;20049;-62
2022/06/16 07:44:48;;;;;;;6.60;2.75;;;;;;;;;;10318020;28;20148;-62
2022/06/16 07:49:49;;;;;;;5.85;2.10;;;;;;;;;;10317990;28;20050;-62
2022/06/16 07:54:49;;;;;;;2.58;2.38;;;;;;;;;;10317771;28;20049;-61
2022/06/16 07:59:51;;;;;;;4.68;2.63;;;;;;;;;;10317506;28;20048;-61
2022/06/16 08:04:49;;;;;;;5.20;2.20;;;;;;;;;;10316255;28;20056;-62
2022/06/16 08:09:49;;;;;;;4.72;2.55;;;;;;;;;;10317213;28;20083;-62
2022/06/16 08:14:48;;;;;;;5.65;2.05;;;;;;;;;;10316669;28;20421;-62
2022/06/16 08:19:47;;;;;;;4.03;2.35;;;;;;;;;;10317363;28;20155;-61
2022/06/16 08:24:47;;;;;;;3.78;1.83;;;;;;;;;;10316803;28;20206;-62
2022/06/16 08:29:47;;;;;;;3.38;2.72;;;;;;;;;;10315697;28;20055;-62
2022/06/16 08:34:46;;;;;;;7.82;2.60;;;;;;;;;;10317045;28;20282;-64
2022/06/16 08:39:44;;;;;;;4.13;2.47;;;;;;;;;;10316661;28;20060;-62
2022/06/16 08:44:43;;;;;;;2.85;1.95;;;;;;;;;;10316229;28;20072;-63
2022/06/16 08:49:47;;;;;;;3.80;2.45;;;;;;;;;;10316736;28;20056;-63
2022/06/16 08:54:52;;;;;;;3.47;2.17;;;;;;;;;;10289439;28;20073;-63
2022/06/16 08:59:51;;;;;;;5.90;2.35;;;;;;;;;;10275135;28;20085;-63
2022/06/16 09:04:52;;;;;;;3.40;2.35;;;;;;;;;;10276209;28;20079;-63
2022/06/16 09:15:17;;;;;;;2.47;1.73;;;;;;;;;;10274449;28;20037;-61
2022/06/16 09:20:22;;;;;;;4.15;2.72;;;;;;;;;;10273628;28;20088;-61
2022/06/16 09:25:41;;;;;;;4.07;2.20;;;;;;;;;;10272082;28;20109;-61
2022/06/16 09:30:43;;;;;;;4.72;2.33;;;;;;;;;;10270380;28;20077;-61
2022/06/16 09:35:45;;;;;;;2.45;1.85;;;;;;;;;;10270108;28;20108;-61
2022/06/16 09:40:45;;;;;;;5.18;2.40;;;;;;;;;;10275609;28;20076;-60
2022/06/16 09:45:48;;;;;;;2.15;1.95;;;;;;;;;;10282787;28;20084;-61
2022/06/16 09:50:52;;;;;;;2.72;2.35;;;;;;;;;;10282278;28;20045;-63
2022/06/16 09:55:52;;;;;;;6.15;1.73;;;;;;;;;;10282137;28;20053;-63
2022/06/16 10:00:52;;;;;;;4.20;1.90;;;;;;;;;;10282273;28;20045;-63
2022/06/16 10:06:03;;;;;;;2.97;1.92;;;;;;;;;;10281473;28;20072;-63
2022/06/16 10:11:03;;;;;;;11.07;2.22;;;;;;;;;;10281790;28;20508;-63
2022/06/16 10:16:04;;;;;;;3.22;2.05;;;;;;;;;;10281389;28;20045;-63
2022/06/16 10:21:07;;;;;;;2.85;2.00;;;;;;;;;;10280964;28;20052;-63
2022/06/16 10:26:07;;;;;;;2.70;1.77;;;;;;;;;;10281253;28;20080;-63
2022/06/16 10:31:06;;;;;;;2.42;2.22;;;;;;;;;;10280549;28;20072;-63
2022/06/16 10:36:07;;;;;;;3.47;2.08;;;;;;;;;;10280253;28;20084;-63
2022/06/16 10:41:07;;;;;;;2.47;2.00;;;;;;;;;;10280202;28;20056;-63
2022/06/16 10:46:11;;;;;;;3.00;1.55;;;;;;;;;;10279692;28;20103;-62
2022/06/16 10:51:12;;;;;;;2.33;1.73;;;;;;;;;;10279216;28;20041;-63
2022/06/16 10:56:15;;;;;;;9.25;1.92;;;;;;;;;;10279868;28;20415;-63
2022/06/16 11:01:17;;;;;;;3.57;2.27;;;;;;;;;;10279292;28;20091;-63
2022/06/16 11:06:17;;;;;;;2.28;2.08;;;;;;;;;;10289739;28;20072;-63
2022/06/16 11:11:17;;;;;;;3.08;1.55;;;;;;;;;;10282069;28;20471;-63
2022/06/16 11:16:25;;;;;;;7.28;1.88;;;;;;;;;;10279382;28;20077;-64
2022/06/16 11:21:28;;;;;;;4.88;2.38;;;;;;;;;;10278543;28;20080;-63
2022/06/16 11:26:28;;;;;;;4.00;2.13;;;;;;;;;;10278561;28;20103;-63
2022/06/16 11:31:35;;;;;;;2.35;1.75;;;;;;;;;;10278356;28;20041;-62
2022/06/16 11:36:48;;;;;;;2.53;1.85;;;;;;;;;;10278260;28;20080;-63
2022/06/16 11:41:50;;;;;;;3.83;2.20;;;;;;;;;;10276307;28;20049;-63
2022/06/16 11:46:50;;;;;;;2.55;2.00;;;;;;;;;;10278459;28;20091;-64
2022/06/16 11:51:53;;;;;;;2.33;2.13;;;;;;;;;;10277951;28;20084;-63
2022/06/16 11:56:55;;;;;;;3.33;2.30;;;;;;;;;;10277970;28;20041;-63
2022/06/16 12:01:55;;;;;;;3.75;1.95;;;;;;;;;;10277176;28;20053;-63
2022/06/16 12:07:01;;;;;;;4.93;2.10;;;;;;;;;;10276928;28;20107;-63
2022/06/16 12:12:05;;;;;;;4.35;2.25;;;;;;;;;;10292508;28;20498;-63
2022/06/16 12:17:07;;;;;;;2.92;1.90;;;;;;;;;;10277133;28;20072;-63
2022/06/16 12:22:10;;;;;;;2.30;1.92;;;;;;;;;;10276387;28;20076;-63
2022/06/16 12:27:12;;;;;;;3.45;1.92;;;;;;;;;;10276775;28;20085;-63
2022/06/16 12:32:16;;;;;;;2.00;1.80;;;;;;;;;;10276797;28;20052;-63
2022/06/16 12:37:17;;;;;;;1.90;1.73;;;;;;;;;;10276312;28;20081;-63
2022/06/16 12:42:26;;;;;;;4.18;2.50;;;;;;;;;;10276409;28;20048;-64
2022/06/16 12:47:26;;;;;;;1.92;1.80;;;;;;;;;;10275261;28;20037;-63
2022/06/16 12:52:27;;;;;;;2.10;1.90;;;;;;;;;;10275999;28;20072;-63
2022/06/16 12:57:29;;;;;;;6.00;2.05;;;;;;;;;;10275547;28;20075;-64
2022/06/16 13:02:31;;;;;;;4.83;2.50;;;;;;;;;;10276036;28;20049;-62
2022/06/16 13:07:32;;;;;;;2.40;1.80;;;;;;;;;;10275950;28;20326;-63
2022/06/16 13:12:33;;;;;;;2.75;1.75;;;;;;;;;;10275458;28;20080;-62
2022/06/16 13:17:35;;;;;;;2.35;1.80;;;;;;;;;;10280903;28;20045;-62
2022/06/16 13:22:36;;;;;;;2.30;1.77;;;;;;;;;;10283296;28;20064;-62
2022/06/16 13:27:41;;;;;;;3.67;1.88;;;;;;;;;;10283310;28;20048;-63
2022/06/16 13:32:40;;;;;;;2.50;1.90;;;;;;;;;;10283459;28;20057;-62
2022/06/16 13:37:44;;;;;;;4.57;2.05;;;;;;;;;;10296460;28;20065;-62
2022/06/16 13:42:43;;;;;;;;;;;;;;;;;;10283430;28;20052;-62
2022/06/16 13:47:44;;;;;;;1.90;1.52;;;;;;;;;;10282700;28;19920;-62
2022/06/16 13:52:43;;;;;;;3.40;2.05;;;;;;;;;;10282656;28;20478;-62
2022/06/16 13:57:42;;;;;;;5.68;2.05;;;;;;;;;;10282387;28;20048;-62
2022/06/16 14:02:56;;;;;;;2.55;2.10;;;;;;;;;;10281565;28;20045;-62
2022/06/16 14:07:56;;;;;;;3.28;1.80;;;;;;;;;;10291285;28;20079;-62
2022/06/16 14:13:03;;;;;;;3.85;3.13;;;;;;;;;;10281045;28;20052;-63
2022/06/16 14:18:13;;;;;;;4.57;1.73;;;;;;;;;;10281812;28;20045;-62
2022/06/16 14:23:14;;;;;;;2.45;1.52;;;;;;;;;;10293106;28;20072;-63
2022/06/16 14:28:14;;;;;;;3.45;2.78;;;;;;;;;;10275792;28;20075;-67
2022/06/16 14:33:16;;;;;;;5.03;2.25;;;;;;;;;;10276364;28;20076;-66
2022/06/16 14:38:17;;;;;;;1.63;1.50;;;;;;;;;;10276645;28;20077;-67
2022/06/16 14:43:18;;;;;;;3.53;2.28;;;;;;;;;;10278975;28;20053;-66
2022/06/16 14:48:19;;;;;;;9.48;6.97;;;;;;;;;;10279612;28;20077;-67
2022/06/16 14:53:20;;;;;;;3.17;1.85;;;;;;;;;;10280156;28;20060;-67
2022/06/16 14:58:19;;;;;;;7.20;3.03;;;;;;;;;;10279586;28;20045;-68
2022/06/16 15:03:22;;;;;;;4.03;2.03;;;;;;;;;;10279712;28;20443;-65
2022/06/16 15:08:24;;;;;;;2.63;2.07;;;;;;;;;;10279781;28;20075;-66
2022/06/16 15:13:24;;;;;;;4.65;3.15;;;;;;;;;;10279805;28;20069;-66
2022/06/16 15:18:25;;;;;;;4.53;3.95;;;;;;;;;;10279512;28;20052;-66
2022/06/16 15:23:26;;;;;;;7.68;2.53;;;;;;;;;;10278654;28;20092;-67
2022/06/16 15:28:26;;;;;;;6.43;5.80;;;;;;;;;;10278975;28;20056;-67
2022/06/16 15:38:56;;;;;;;4.60;2.10;;;;;;;;;;10191879;28;20523;-67
2022/06/16 15:44:01;;;;;;;8.98;3.13;;;;;;;;;;10255177;28;20092;-66
2022/06/16 15:49:01;;;;;;;4.97;2.20;;;;;;;;;;10278290;28;20053;-68
2022/06/16 15:54:00;;;;;;;3.42;2.50;;;;;;;;;;10278227;28;20044;-66
2022/06/16 15:59:00;;;;;;;3.80;2.92;;;;;;;;;;10277497;28;20072;-66
2022/06/16 16:04:02;;;;;;;4.10;2.65;;;;;;;;;;10277738;28;20463;-66
2022/06/16 16:09:01;;;;;;;3.22;2.28;;;;;;;;;;10277250;28;20045;-66
2022/06/16 16:14:01;;;;;;;6.25;4.60;;;;;;;;;;10276802;28;20052;-66
2022/06/16 16:19:08;;;;;;;3.72;3.22;;;;;;;;;;10277483;28;20167;-67
2022/06/16 16:24:08;;;;;;;5.15;4.57;;;;;;;;;;10276684;28;20514;-66
2022/06/16 16:29:07;;;;;;;6.60;5.95;;;;;;;;;;10276714;28;20524;-67
2022/06/16 16:34:08;;;;;;;4.07;2.80;;;;;;;;;;10276766;28;20434;-67
2022/06/16 16:39:19;;;;;;;5.75;4.32;;;;;;;;;;10276475;28;20422;-68
2022/06/16 16:44:19;;;;;;;12.23;11.07;;;;;;;;;;10275560;28;20092;-67
2022/06/16 16:49:19;;;;;;;7.75;6.72;;;;;;;;;;10274553;28;20041;-67
2022/06/16 16:54:18;;;;;;;6.72;3.78;;;;;;;;;;10274997;28;20056;-67
2022/06/16 16:59:19;;;;;;;4.78;2.70;;;;;;;;;;10273850;28;20069;-63
2022/06/16 17:04:21;;;;;;;6.78;3.58;;;;;;;;;;10290896;28;20489;-64
2022/06/16 17:09:19;;;;;;;5.18;2.72;;;;;;;;;;10283961;28;20068;-64
2022/06/16 17:14:18;;;;;;;7.57;6.45;;;;;;;;;;10291339;28;20083;-63
2022/06/16 17:19:17;;;;;;;5.20;2.40;;;;;;;;;;10281740;28;20189;-66
2022/06/16 17:24:18;;;;;;;7.18;5.20;;;;;;;;;;10287163;28;20072;-68
2022/06/16 17:29:16;;;;;;;5.15;2.75;;;;;;;;;;10278607;28;20075;-63
2022/06/16 17:34:16;;;;;;;3.33;2.95;;;;;;;;;;10276342;28;20069;-64
2022/06/16 17:39:15;;;;;;;8.15;5.45;;;;;;;;;;10280638;28;20094;-64
2022/06/16 17:44:15;;;;;;;5.85;3.10;;;;;;;;;;10277409;28;20064;-64
2022/06/16 17:49:14;;;;;;;4.82;2.17;;;;;;;;;;10288961;28;20084;-66
2022/06/16 17:59:42;;;;;;;2.97;2.38;;;;;;;;;;10278651;28;20068;-65
2022/06/16 18:04:44;;;;;;;6.18;2.33;;;;;;;;;;10280586;28;20087;-68
2022/06/16 18:09:43;;;;;;;7.93;3.67;;;;;;;;;;10287311;28;20099;-64
2022/06/16 18:14:43;;;;;;;4.75;2.00;;;;;;;;;;10281994;28;20048;-64
2022/06/16 18:19:41;;;;;;;2.28;1.73;;;;;;;;;;10288524;28;20079;-64
2022/06/16 18:24:40;;;;;;;2.70;2.22;;;;;;;;;;10289205;28;20079;-64
2022/06/16 18:29:40;;;;;;;6.85;1.98;;;;;;;;;;10283380;28;20091;-64
2022/06/16 18:34:39;;;;;;;3.35;2.00;;;;;;;;;;10288870;28;20056;-63
2022/06/16 18:39:38;;;;;;;3.75;1.58;;;;;;;;;;10290726;28;20084;-65
2022/06/16 18:44:36;;;;;;;2.53;2.28;;;;;;;;;;10285585;28;20083;-63
2022/06/16 18:49:36;;;;;;;6.15;2.00;;;;;;;;;;10287782;28;20068;-64
2022/06/16 18:54:40;;;;;;;4.10;1.80;;;;;;;;;;10279078;28;20443;-64
2022/06/16 18:59:39;;;;;;;4.57;1.90;;;;;;;;;;10280212;28;20520;-64
2022/06/16 19:04:37;;;;;;;4.57;2.10;;;;;;;;;;10282127;28;20068;-64
2022/06/16 19:09:35;;;;;;;4.43;1.50;;;;;;;;;;10289009;28;20071;-64
2022/06/16 19:14:35;;;;;;;3.53;1.70;;;;;;;;;;10287526;28;20060;-63
2022/06/16 19:19:33;;;;;;;3.35;2.58;;;;;;;;;;10289267;28;20064;-63
2022/06/16 19:24:32;;;;;;;5.60;2.53;;;;;;;;;;10284268;28;20099;-63
2022/06/16 19:29:33;;;;;;;2.88;1.55;;;;;;;;;;10285002;28;20071;-64
2022/06/16 19:34:33;;;;;;;2.13;1.92;;;;;;;;;;10287845;28;20072;-63
2022/06/16 19:39:32;;;;;;;3.75;2.22;;;;;;;;;;10280071;28;20095;-63
2022/06/16 19:55:05;;;;;;;2.20;1.98;;;;;;;;;;10293086;28;20074;-64
2022/06/16 20:00:04;;;;;;;4.90;3.13;;;;;;;;;;10289828;28;20073;-64
2022/06/16 20:05:10;;;;;;;4.50;2.92;;;;;;;;;;10273315;28;20076;-64
2022/06/16 20:10:09;;;;;;;2.42;2.00;;;;;;;;;;10271773;28;20083;-64
2022/06/16 20:15:08;;;;;;;2.22;2.03;;;;;;;;;;10292447;28;20071;-65
2022/06/16 20:20:07;;;;;;;3.15;1.90;;;;;;;;;;10289052;28;20076;-65
2022/06/16 20:25:08;;;;;;;3.45;2.45;;;;;;;;;;10284253;28;20072;-65
2022/06/16 20:30:08;;;;;;;2.40;1.98;;;;;;;;;;10279428;28;20510;-65
2022/06/16 20:35:11;;;;;;;2.17;1.90;;;;;;;;;;10273499;28;20096;-65
2022/06/16 20:40:12;;;;;;;4.18;2.00;;;;;;;;;;10276385;28;20121;-65
2022/06/16 20:45:11;;;;;;;3.03;2.17;;;;;;;;;;10282015;28;20064;-65
2022/06/16 20:50:11;;;;;;;2.42;1.80;;;;;;;;;;10293441;28;20083;-64
2022/06/16 20:55:16;;;;;;;2.75;2.03;;;;;;;;;;10292737;28;20490;-64
2022/06/16 21:05:33;;;;;;;2.88;2.05;;;;;;;;;;10277014;28;20060;-65
2022/06/16 21:10:33;;;;;;;3.42;2.80;;;;;;;;;;10277276;28;20052;-66
2022/06/16 21:15:32;;;;;;;4.13;2.55;;;;;;;;;;10273901;28;20083;-59
2022/06/16 21:20:32;;;;;;;4.32;2.75;;;;;;;;;;10283258;28;20084;-60
2022/06/16 21:25:30;;;;;;;3.35;2.13;;;;;;;;;;10277360;28;20089;-60
2022/06/16 21:30:30;;;;;;;2.97;2.03;;;;;;;;;;10279982;28;20506;-59
2022/06/16 21:35:30;;;;;;;3.40;2.25;;;;;;;;;;10277001;28;20068;-59
2022/06/16 21:40:29;;;;;;;2.70;1.80;;;;;;;;;;10287032;28;20079;-59
2022/06/16 21:45:28;;;;;;;3.38;2.28;;;;;;;;;;10283697;28;20049;-59
2022/06/16 21:50:30;;;;;;;6.57;2.00;;;;;;;;;;10288916;28;20076;-59
2022/06/16 21:55:29;;;;;;;2.22;2.03;;;;;;;;;;10305078;28;20505;-60
2022/06/16 22:00:30;;;;;;;3.55;1.90;;;;;;;;;;10280190;28;20069;-59
2022/06/16 22:05:30;;;;;;;2.47;2.17;;;;;;;;;;10285809;28;20053;-59
2022/06/16 22:10:29;;;;;;;4.65;2.15;;;;;;;;;;10283042;28;20487;-58
2022/06/16 22:20:46;;;;;;;3.72;2.10;;;;;;;;;;10282312;28;20084;-60
2022/06/16 22:25:45;;;;;;;2.25;1.98;;;;;;;;;;10279689;28;20052;-59
2022/06/16 22:30:43;;;;;;;3.90;1.85;;;;;;;;;;10286078;28;20506;-60
2022/06/16 22:35:42;;;;;;;3.45;1.70;;;;;;;;;;10281353;28;20049;-60
2022/06/16 22:40:43;;;;;;;8.82;2.03;;;;;;;;;;10280801;28;20418;-59
2022/06/16 22:45:42;;;;;;;5.95;2.10;;;;;;;;;;10280772;28;20048;-60
2022/06/16 22:50:40;;;;;;;2.63;1.92;;;;;;;;;;10278032;28;20080;-60
2022/06/16 23:00:55;;;;;;;3.42;1.83;;;;;;;;;;10278862;28;20056;-60
2022/06/16 23:05:53;;;;;;;2.67;1.70;;;;;;;;;;10281267;28;20045;-58
2022/06/16 23:10:51;;;;;;;4.53;2.15;;;;;;;;;;10279536;28;20088;-59
2022/06/16 23:15:50;;;;;;;2.70;1.85;;;;;;;;;;10279083;28;20049;-59
2022/06/16 23:20:50;;;;;;;9.38;1.80;;;;;;;;;;10282034;28;20529;-59
2022/06/16 23:25:48;;;;;;;6.07;2.10;;;;;;;;;;10282473;28;20063;-59
2022/06/16 23:30:48;;;;;;;5.88;1.90;;;;;;;;;;10282842;28;20076;-59
2022/06/16 23:35:47;;;;;;;3.72;2.17;;;;;;;;;;10280291;28;20478;-58
2022/06/16 23:40:46;;;;;;;3.05;1.83;;;;;;;;;;10281034;28;20041;-58
2022/06/16 23:45:45;;;;;;;1.67;1.40;;;;;;;;;;10278255;28;20095;-59
2022/06/16 23:50:43;;;;;;;2.17;1.70;;;;;;;;;;10279641;28;20084;-59
2022/06/16 23:55:42;;;;;;;3.50;1.63;;;;;;;;;;10275736;28;20083;-58
